Terminal Aerodrome Forecast
Issued by NWS

Home | Current Version | Previous Version | Text Only | Print | Product List | Glossary Off
Versions: 1 2 3 4 5 6 7 8 9 10 11 12 13 14

000
FTUS43 KABR 291018 AAA
TAFATY
TAF AMD
KATY 291018Z 2910/3006 25012KT P6SM SKC
     FM291500 28020KT P6SM SKC
     FM292100 29025G32KT P6SM SKC
     FM300000 28012KT P6SM SKC=

USA.gov is the U.S. government's official web portal to all federal, state and local government web resources and services.